createdAt,value
2023-05-20T00:03:15.411Z,27.00
2023-05-20T00:13:41.404Z,27.90
2023-05-20T00:24:07.722Z,22.60
2023-05-20T00:34:33.493Z,25.30
2023-05-20T00:44:59.591Z,25.70
2023-05-20T00:55:25.752Z,22.90
2023-05-20T01:05:51.476Z,31.10
2023-05-20T01:16:19.384Z,28.50
2023-05-20T01:26:48.691Z,25.80
2023-05-20T01:37:16.118Z,28.90
2023-05-20T01:47:41.514Z,30.60
2023-05-20T01:58:07.446Z,27.00
2023-05-20T02:08:33.599Z,29.40
2023-05-20T02:18:59.232Z,29.00
2023-05-20T02:29:24.704Z,29.00
2023-05-20T02:39:51.625Z,25.40
2023-05-20T02:50:17.333Z,22.60
2023-05-20T03:00:43.990Z,23.00
2023-05-20T03:11:09.734Z,20.50
2023-05-20T03:21:35.797Z,20.20
2023-05-20T03:32:01.470Z,16.20
2023-05-20T03:42:27.299Z,19.10
2023-05-20T03:52:53.332Z,15.40
2023-05-20T04:03:19.778Z,14.40
2023-05-20T04:13:45.595Z,15.20
2023-05-20T04:24:11.555Z,15.80
2023-05-20T04:34:37.476Z,12.70
2023-05-20T04:45:06.023Z,12.30
2023-05-20T04:55:32.696Z,8.50
2023-05-20T05:06:00.271Z,10.50
2023-05-20T05:16:26.310Z,8.20
2023-05-20T05:26:56.535Z,8.70
2023-05-20T05:37:22.519Z,9.90
2023-05-20T05:47:48.287Z,10.70
2023-05-20T05:58:14.367Z,14.20
2023-05-20T06:08:40.460Z,14.30
2023-05-20T06:19:06.116Z,15.00
2023-05-20T06:29:32.115Z,12.70
2023-05-20T06:39:58.322Z,13.40
2023-05-20T06:50:25.144Z,16.50
2023-05-20T07:00:51.352Z,26.00
2023-05-20T07:11:16.772Z,14.80
2023-05-20T07:21:42.657Z,13.70
2023-05-20T07:32:10.708Z,12.50
2023-05-20T07:53:00.987Z,11.10
2023-05-20T08:03:27.405Z,12.20
2023-05-20T08:13:53.207Z,13.10
2023-05-20T08:24:19.156Z,17.80
2023-05-20T08:34:45.416Z,13.30
2023-05-20T08:45:14.648Z,20.30
2023-05-20T08:55:54.404Z,14.20
2023-05-20T09:06:20.945Z,16.50
2023-05-20T09:16:46.805Z,15.50
2023-05-20T09:27:13.833Z,18.00
2023-05-20T09:37:40.948Z,17.70
2023-05-20T09:48:09.264Z,15.70
2023-05-20T09:58:37.414Z,18.70
2023-05-20T10:09:19.384Z,19.30
2023-05-20T10:19:45.784Z,27.50
2023-05-20T10:30:19.145Z,27.80
2023-05-20T10:40:44.956Z,18.60
2023-05-20T10:51:17.356Z,22.60
2023-05-20T11:01:45.504Z,19.80
2023-05-20T11:12:11.490Z,28.10
2023-05-20T11:22:37.581Z,32.30
2023-05-20T11:33:05.076Z,23.70
2023-05-20T11:54:05.447Z,38.20
2023-05-20T12:04:31.910Z,23.80
2023-05-20T12:14:58.101Z,25.10
2023-05-20T12:25:23.916Z,22.30
2023-05-20T12:35:49.491Z,23.30
2023-05-20T12:46:15.459Z,39.90
2023-05-20T12:56:42.763Z,23.80
2023-05-20T13:07:08.877Z,23.00
2023-05-20T13:17:34.565Z,26.10
2023-05-20T13:28:00.597Z,19.50
2023-05-20T13:38:26.865Z,20.30
2023-05-20T13:48:52.865Z,21.00
2023-05-20T13:59:19.093Z,23.80
2023-05-20T14:09:45.256Z,21.60
2023-05-20T14:20:12.791Z,17.80
2023-05-20T14:30:39.308Z,17.30
2023-05-20T14:41:05.210Z,17.80
2023-05-20T14:51:31.610Z,18.10
2023-05-20T15:01:57.525Z,18.50
2023-05-20T15:12:23.666Z,16.70
2023-05-20T15:22:49.734Z,20.70
2023-05-20T15:33:16.039Z,20.50
2023-05-20T15:43:42.754Z,17.60
2023-05-20T15:54:08.960Z,15.90
2023-05-20T16:04:35.116Z,21.20
2023-05-20T16:15:00.941Z,16.50
2023-05-20T16:25:26.817Z,25.60
2023-05-20T16:35:52.621Z,17.10
2023-05-20T16:46:18.837Z,16.00
2023-05-20T16:56:44.630Z,19.20
2023-05-20T17:07:11.502Z,16.40
2023-05-20T17:17:37.754Z,18.70
2023-05-20T17:28:03.385Z,17.40
2023-05-20T17:38:29.131Z,14.80
2023-05-20T17:48:55.043Z,16.40
2023-05-20T17:59:21.311Z,18.50
2023-05-20T18:09:47.203Z,17.20
2023-05-20T18:20:15.746Z,16.70
2023-05-20T18:30:41.955Z,18.10
2023-05-20T18:41:07.843Z,15.90
2023-05-20T18:51:34.395Z,17.40
2023-05-20T19:02:00.792Z,16.40
2023-05-20T19:12:26.601Z,16.40
2023-05-20T19:22:53.060Z,21.80
2023-05-20T19:33:18.767Z,22.70
2023-05-20T19:43:44.491Z,19.80
2023-05-20T19:54:10.242Z,18.20
2023-05-20T20:04:36.343Z,17.70
2023-05-20T20:15:02.142Z,16.50
2023-05-20T20:25:28.247Z,17.00
2023-05-20T20:35:55.366Z,13.00
2023-05-20T20:46:21.738Z,13.60
2023-05-20T20:56:47.469Z,16.50
2023-05-20T21:18:21.805Z,13.90
2023-05-20T21:28:47.629Z,15.20
2023-05-20T21:39:13.418Z,13.10
2023-05-20T21:49:39.668Z,14.10
2023-05-20T22:00:06.897Z,19.30
2023-05-20T22:10:33.982Z,14.00
2023-05-20T22:21:00.771Z,14.30
2023-05-20T22:31:27.250Z,15.90
2023-05-20T22:41:53.328Z,15.70
2023-05-20T22:52:21.299Z,14.50
2023-05-20T23:02:50.101Z,14.00
2023-05-20T23:14:11.444Z,14.90
2023-05-20T23:24:37.579Z,15.70
2023-05-20T23:45:48.128Z,13.50
2023-05-20T23:56:13.455Z,19.40
